createdAt,value
2023-02-16T00:02:05.391Z,64.70
2023-02-16T00:06:23.603Z,65.84
2023-02-16T00:10:31.795Z,66.08
2023-02-16T00:14:39.944Z,66.07
2023-02-16T00:18:48.209Z,66.52
2023-02-16T00:22:56.361Z,64.03
2023-02-16T00:27:04.525Z,63.67
2023-02-16T00:31:15.941Z,63.32
2023-02-16T00:35:25.239Z,64.62
2023-02-16T00:39:32.236Z,65.11
2023-02-16T00:43:39.564Z,66.39
2023-02-16T00:47:38.677Z,67.66
2023-02-16T00:51:46.838Z,65.57
2023-02-16T00:56:01.190Z,63.81
2023-02-16T01:00:10.402Z,63.97
2023-02-16T01:04:10.986Z,64.81
2023-02-16T01:08:25.288Z,65.20
2023-02-16T01:12:33.605Z,66.41
2023-02-16T01:16:41.949Z,67.18
2023-02-16T01:20:50.140Z,65.28
2023-02-16T01:24:58.313Z,64.36
2023-02-16T01:29:21.973Z,64.53
2023-02-16T01:33:30.101Z,65.63
2023-02-16T01:37:29.264Z,66.38
2023-02-16T01:41:43.143Z,65.79
2023-02-16T01:45:51.329Z,66.92
2023-02-16T01:50:02.119Z,64.97
2023-02-16T01:54:17.392Z,62.99
2023-02-16T01:58:05.220Z,64.01
2023-02-16T02:02:13.387Z,64.84
2023-02-16T02:06:28.777Z,66.12
2023-02-16T02:10:43.008Z,66.80
2023-02-16T02:14:54.637Z,67.60
2023-02-16T02:19:03.080Z,65.61
2023-02-16T02:23:18.914Z,64.44
2023-02-16T02:27:45.260Z,65.10
2023-02-16T02:31:59.550Z,65.88
2023-02-16T02:36:18.590Z,66.23
2023-02-16T02:40:47.885Z,67.24
2023-02-16T02:44:49.876Z,67.87
2023-02-16T02:48:37.708Z,65.27
2023-02-16T02:52:45.795Z,65.09
2023-02-16T02:56:58.276Z,65.27
2023-02-16T03:01:21.530Z,65.40
2023-02-16T03:05:18.412Z,66.49
2023-02-16T03:09:26.560Z,66.66
2023-02-16T03:13:29.547Z,67.99
2023-02-16T03:17:52.471Z,65.37
2023-02-16T03:22:00.261Z,64.39
2023-02-16T03:26:06.888Z,65.19
2023-02-16T03:30:05.240Z,65.51
2023-02-16T03:34:13.384Z,65.78
2023-02-16T03:38:21.686Z,66.92
2023-02-16T03:42:29.873Z,67.61
2023-02-16T03:46:38.039Z,64.69
2023-02-16T03:50:47.135Z,64.56
2023-02-16T03:54:46.782Z,65.21
2023-02-16T03:58:54.934Z,66.31
2023-02-16T04:03:03.226Z,67.21
2023-02-16T04:07:11.397Z,67.50
2023-02-16T04:11:19.546Z,67.75
2023-02-16T04:15:28.765Z,66.06
2023-02-16T04:19:36.974Z,64.83
2023-02-16T04:23:47.132Z,65.15
2023-02-16T04:27:55.374Z,65.67
2023-02-16T04:32:03.688Z,66.88
2023-02-16T04:36:12.930Z,67.32
2023-02-16T04:40:21.087Z,65.22
2023-02-16T04:44:29.286Z,63.41
2023-02-16T04:48:37.508Z,64.65
2023-02-16T04:52:44.575Z,65.58
2023-02-16T04:56:22.621Z,66.82
2023-02-16T04:59:53.327Z,67.48
2023-02-16T05:03:51.556Z,65.97
2023-02-16T05:07:59.756Z,63.73
2023-02-16T05:11:59.233Z,64.62
2023-02-16T05:15:47.398Z,65.69
2023-02-16T05:19:25.332Z,66.00
2023-02-16T05:22:53.166Z,66.40
2023-02-16T05:26:20.144Z,66.84
2023-02-16T05:30:21.044Z,66.46
2023-02-16T05:34:30.148Z,65.39
2023-02-16T05:38:39.323Z,65.86
2023-02-16T05:42:39.581Z,65.76
2023-02-16T05:46:46.551Z,66.24
2023-02-16T05:50:44.607Z,67.35
2023-02-16T05:54:52.866Z,67.72
2023-02-16T05:58:25.574Z,68.86
2023-02-16T06:02:33.833Z,69.25
2023-02-16T06:06:04.853Z,67.52
2023-02-16T06:09:32.922Z,66.13
2023-02-16T06:13:10.672Z,65.46
2023-02-16T06:17:08.627Z,64.53
2023-02-16T06:20:49.267Z,64.74
2023-02-16T06:24:17.400Z,64.11
2023-02-16T06:27:46.930Z,66.83
2023-02-16T06:30:27.360Z,58.92
2023-02-16T06:34:09.556Z,56.11
2023-02-16T06:37:22.381Z,53.27
2023-02-16T06:40:11.616Z,49.85
2023-02-16T06:43:09.915Z,50.83
2023-02-16T06:46:18.694Z,53.19
2023-02-16T06:49:28.551Z,51.95
2023-02-16T06:52:41.288Z,50.00
2023-02-16T06:55:44.697Z,49.16
2023-02-16T06:58:17.669Z,48.35
2023-02-16T07:01:31.166Z,48.27
2023-02-16T07:04:45.231Z,49.34
2023-02-16T07:07:13.271Z,49.52
2023-02-16T07:09:46.808Z,49.21
2023-02-16T07:12:40.260Z,48.68
2023-02-16T07:16:16.852Z,48.96
2023-02-16T07:19:13.565Z,48.33
2023-02-16T07:21:55.556Z,48.14
2023-02-16T07:24:50.083Z,47.50
2023-02-16T07:27:19.968Z,44.87
2023-02-16T07:29:59.219Z,47.52
2023-02-16T07:33:10.979Z,46.46
2023-02-16T07:36:20.336Z,45.51
2023-02-16T07:38:55.500Z,45.29
2023-02-16T07:42:06.479Z,45.07
2023-02-16T07:45:15.947Z,45.12
2023-02-16T07:48:14.444Z,44.17
2023-02-16T07:51:25.277Z,44.47
2023-02-16T07:54:08.665Z,44.01
2023-02-16T07:57:09.042Z,44.14
2023-02-16T08:00:07.872Z,44.10
2023-02-16T08:02:51.981Z,43.72
2023-02-16T08:05:59.465Z,42.41
2023-02-16T08:09:24.408Z,43.17
2023-02-16T08:12:55.202Z,42.26
2023-02-16T08:15:34.588Z,42.70
2023-02-16T08:18:55.487Z,41.34
2023-02-16T08:22:06.578Z,41.28
2023-02-16T08:25:16.733Z,40.32
2023-02-16T08:28:39.957Z,36.22
2023-02-16T08:31:38.900Z,38.86
2023-02-16T08:35:07.873Z,39.41
2023-02-16T08:39:05.846Z,38.30
2023-02-16T08:41:57.272Z,37.97
2023-02-16T08:45:25.587Z,36.88
2023-02-16T08:48:16.877Z,37.19
2023-02-16T08:50:54.043Z,35.18
2023-02-16T08:53:57.760Z,35.26
2023-02-16T08:57:07.710Z,36.13
2023-02-16T09:00:25.976Z,36.86
2023-02-16T09:03:15.454Z,36.37
2023-02-16T09:05:55.257Z,34.76
2023-02-16T09:08:43.304Z,34.74
2023-02-16T09:11:14.026Z,34.69
2023-02-16T09:14:06.456Z,33.60
2023-02-16T09:16:38.982Z,34.68
2023-02-16T09:19:36.602Z,34.09
2023-02-16T09:22:06.870Z,33.95
2023-02-16T09:24:37.591Z,32.33
2023-02-16T09:27:35.130Z,32.22
2023-02-16T09:30:02.580Z,32.14
2023-02-16T09:33:32.700Z,31.68
2023-02-16T09:36:28.982Z,33.48
2023-02-16T09:39:36.178Z,32.39
2023-02-16T09:42:06.436Z,33.59
2023-02-16T09:44:33.844Z,32.14
2023-02-16T09:47:26.888Z,31.16
2023-02-16T09:49:58.594Z,31.77
2023-02-16T09:52:44.520Z,31.07
2023-02-16T09:55:41.067Z,30.95
2023-02-16T09:58:33.917Z,30.35
2023-02-16T10:01:39.110Z,30.66
2023-02-16T10:04:43.865Z,30.07
2023-02-16T10:08:14.612Z,29.73
2023-02-16T10:11:31.836Z,29.76
2023-02-16T10:14:16.208Z,29.04
2023-02-16T10:16:57.136Z,29.10
2023-02-16T10:19:29.661Z,29.10
2023-02-16T10:22:00.693Z,28.95
2023-02-16T10:24:31.620Z,29.39
2023-02-16T10:27:08.472Z,29.13
2023-02-16T10:29:45.784Z,29.41
2023-02-16T10:32:26.958Z,29.19
2023-02-16T10:35:19.468Z,29.15
2023-02-16T10:38:27.719Z,30.13
2023-02-16T10:41:14.097Z,29.80
2023-02-16T10:44:24.386Z,29.45
2023-02-16T10:47:36.746Z,28.71
2023-02-16T10:50:07.241Z,28.32
2023-02-16T10:53:06.657Z,28.08
2023-02-16T10:57:56.617Z,27.57
2023-02-16T11:00:28.567Z,27.07
2023-02-16T11:03:06.339Z,27.05
2023-02-16T11:05:38.702Z,27.09
2023-02-16T11:08:11.420Z,27.13
2023-02-16T11:10:50.781Z,26.99
2023-02-16T11:13:40.543Z,27.98
2023-02-16T11:16:13.898Z,27.57
2023-02-16T11:18:46.992Z,28.12
2023-02-16T11:21:50.453Z,27.64
2023-02-16T11:24:50.700Z,28.86
2023-02-16T11:27:25.988Z,26.92
2023-02-16T11:30:36.812Z,27.86
2023-02-16T11:33:28.629Z,26.68
2023-02-16T11:35:56.304Z,27.52
2023-02-16T11:38:37.105Z,27.80
2023-02-16T11:41:07.391Z,27.45
2023-02-16T11:43:44.720Z,27.88
2023-02-16T11:46:16.884Z,28.98
2023-02-16T11:48:44.422Z,29.48
2023-02-16T11:51:12.604Z,29.69
2023-02-16T11:53:58.935Z,29.67
2023-02-16T11:56:46.757Z,29.75
2023-02-16T11:59:21.878Z,30.33
2023-02-16T12:01:54.653Z,29.90
2023-02-16T12:04:40.031Z,30.46
2023-02-16T12:07:32.545Z,30.58
2023-02-16T12:10:53.544Z,30.52
2023-02-16T12:13:38.094Z,30.59
2023-02-16T12:16:37.198Z,30.98
2023-02-16T12:19:27.247Z,30.41
2023-02-16T12:22:04.736Z,30.51
2023-02-16T12:25:00.881Z,30.96
2023-02-16T12:27:41.886Z,30.95
2023-02-16T12:30:18.405Z,31.20
2023-02-16T12:33:06.032Z,30.87
2023-02-16T12:35:46.251Z,31.09
2023-02-16T12:38:34.474Z,31.11
2023-02-16T12:41:14.086Z,31.79
2023-02-16T12:43:53.998Z,32.13
2023-02-16T12:46:47.285Z,31.69
2023-02-16T12:49:24.631Z,31.55
2023-02-16T12:52:57.874Z,32.15
2023-02-16T12:55:31.730Z,31.58
2023-02-16T12:58:53.531Z,31.21
2023-02-16T13:01:25.567Z,31.07
2023-02-16T13:04:17.709Z,31.96
2023-02-16T13:07:03.189Z,32.53
2023-02-16T13:10:21.726Z,32.14
2023-02-16T13:13:12.501Z,32.69
2023-02-16T13:15:55.024Z,32.95
2023-02-16T13:18:24.482Z,33.17
2023-02-16T13:21:19.463Z,33.40
2023-02-16T13:24:26.790Z,33.39
2023-02-16T13:27:12.762Z,32.97
2023-02-16T13:30:35.073Z,33.27
2023-02-16T13:34:06.546Z,33.67
2023-02-16T13:37:17.041Z,34.13
2023-02-16T13:40:15.329Z,33.32
2023-02-16T13:43:09.998Z,33.64
2023-02-16T13:45:54.179Z,34.48
2023-02-16T13:48:41.538Z,35.25
2023-02-16T13:51:13.967Z,35.05
2023-02-16T13:53:42.509Z,35.25
2023-02-16T13:56:31.031Z,36.35
2023-02-16T13:59:01.282Z,36.01
2023-02-16T14:01:28.530Z,35.97
2023-02-16T14:03:58.490Z,36.28
2023-02-16T14:06:34.272Z,37.15
2023-02-16T14:09:15.534Z,36.05
2023-02-16T14:11:59.506Z,36.27
2023-02-16T14:15:09.712Z,36.59
2023-02-16T14:17:37.019Z,37.91
2023-02-16T14:20:13.596Z,37.38
2023-02-16T14:23:20.915Z,37.18
2023-02-16T14:26:04.751Z,38.24
2023-02-16T14:28:37.012Z,38.33
2023-02-16T14:32:03.259Z,38.78
2023-02-16T14:34:56.293Z,39.46
2023-02-16T14:37:38.878Z,40.16
2023-02-16T14:40:24.079Z,39.63
2023-02-16T14:43:43.956Z,40.29
2023-02-16T14:47:33.035Z,40.76
2023-02-16T14:50:36.615Z,41.37
2023-02-16T14:53:57.965Z,41.53
2023-02-16T14:57:24.846Z,41.75
2023-02-16T15:00:19.890Z,41.43
2023-02-16T15:03:08.164Z,42.66
2023-02-16T15:07:00.262Z,42.53
2023-02-16T15:09:59.558Z,42.91
2023-02-16T15:13:11.348Z,43.08
2023-02-16T15:16:14.010Z,42.92
2023-02-16T15:19:07.852Z,43.59
2023-02-16T15:22:39.989Z,43.82
2023-02-16T15:25:42.275Z,44.15
2023-02-16T15:28:42.897Z,44.70
2023-02-16T15:32:16.707Z,44.47
2023-02-16T15:35:38.867Z,45.63
2023-02-16T15:38:43.383Z,45.81
2023-02-16T15:41:34.594Z,46.03
2023-02-16T15:45:08.842Z,46.17
2023-02-16T15:48:56.697Z,46.96
2023-02-16T15:51:38.899Z,47.54
2023-02-16T15:54:46.838Z,47.55
2023-02-16T15:57:37.481Z,47.69
2023-02-16T16:00:54.709Z,48.36
2023-02-16T16:03:34.886Z,48.49
2023-02-16T16:06:17.692Z,48.66
2023-02-16T16:09:08.493Z,49.41
2023-02-16T16:12:33.188Z,49.75
2023-02-16T16:15:33.367Z,49.40
2023-02-16T16:18:53.429Z,49.78
2023-02-16T16:22:11.787Z,50.24
2023-02-16T16:25:07.884Z,50.63
2023-02-16T16:28:30.814Z,50.11
2023-02-16T16:31:40.625Z,50.20
2023-02-16T16:34:38.732Z,50.49
2023-02-16T16:37:35.734Z,50.16
2023-02-16T16:40:26.452Z,50.94
2023-02-16T16:43:36.636Z,50.86
2023-02-16T16:46:54.206Z,51.09
2023-02-16T16:49:21.473Z,52.01
2023-02-16T16:52:11.077Z,51.84
2023-02-16T16:55:34.894Z,52.15
2023-02-16T16:58:05.405Z,52.34
2023-02-16T17:00:58.953Z,52.85
2023-02-16T17:03:31.616Z,53.14
2023-02-16T17:06:22.073Z,53.06
2023-02-16T17:08:49.627Z,53.11
2023-02-16T17:12:25.158Z,53.27
2023-02-16T17:15:32.691Z,53.54
2023-02-16T17:18:37.789Z,54.23
2023-02-16T17:21:13.916Z,54.46
2023-02-16T17:24:51.752Z,54.74
2023-02-16T17:27:19.923Z,54.50
2023-02-16T17:30:00.906Z,54.75
2023-02-16T17:32:31.208Z,55.10
2023-02-16T17:35:24.350Z,55.55
2023-02-16T17:37:55.317Z,55.40
2023-02-16T17:40:33.919Z,55.16
2023-02-16T17:43:01.313Z,55.29
2023-02-16T17:45:34.969Z,55.77
2023-02-16T17:48:30.442Z,55.82
2023-02-16T17:51:36.499Z,56.27
2023-02-16T17:54:06.567Z,56.36
2023-02-16T17:56:47.053Z,55.85
2023-02-16T17:59:26.108Z,56.06
2023-02-16T18:01:56.044Z,55.82
2023-02-16T18:04:32.927Z,56.25
2023-02-16T18:07:16.823Z,56.18
2023-02-16T18:09:46.102Z,56.07
2023-02-16T18:12:33.826Z,56.43
2023-02-16T18:15:12.992Z,57.21
2023-02-16T18:18:23.418Z,56.51
2023-02-16T18:21:16.618Z,56.23
2023-02-16T18:23:46.764Z,56.60
2023-02-16T18:26:17.040Z,56.93
2023-02-16T18:28:47.029Z,56.75
2023-02-16T18:31:49.106Z,56.64
2023-02-16T18:34:37.650Z,56.78
2023-02-16T18:37:15.097Z,57.37
2023-02-16T18:40:46.364Z,57.15
2023-02-16T18:43:37.271Z,57.11
2023-02-16T18:47:03.070Z,57.29
2023-02-16T18:50:06.781Z,57.41
2023-02-16T18:52:34.461Z,57.72
2023-02-16T18:55:36.094Z,58.05
2023-02-16T18:58:26.572Z,58.20
2023-02-16T19:01:01.217Z,57.74
2023-02-16T19:03:30.192Z,57.66
2023-02-16T19:06:00.623Z,57.69
2023-02-16T19:08:31.447Z,58.02
2023-02-16T19:11:01.908Z,57.76
2023-02-16T19:14:23.103Z,58.40
2023-02-16T19:17:16.944Z,58.23
2023-02-16T19:19:57.584Z,58.32
2023-02-16T19:22:48.890Z,58.44
2023-02-16T19:25:19.310Z,58.25
2023-02-16T19:27:47.268Z,58.31
2023-02-16T19:30:41.252Z,58.79
2023-02-16T19:33:15.596Z,58.21
2023-02-16T19:36:24.139Z,56.84
2023-02-16T19:38:54.560Z,56.10
2023-02-16T19:41:50.717Z,56.02
2023-02-16T19:44:37.984Z,55.95
2023-02-16T19:47:44.802Z,56.76
2023-02-16T19:50:55.524Z,57.51
2023-02-16T19:53:28.420Z,57.63
2023-02-16T19:56:45.512Z,57.77
2023-02-16T19:59:55.987Z,57.95
2023-02-16T20:03:15.138Z,58.51
2023-02-16T20:06:11.092Z,58.32
2023-02-16T20:09:12.632Z,58.58
2023-02-16T20:12:09.203Z,58.79
2023-02-16T20:15:07.891Z,59.30
2023-02-16T20:18:06.202Z,59.58
2023-02-16T20:21:36.144Z,59.17
2023-02-16T20:25:06.268Z,59.44
2023-02-16T20:27:49.493Z,58.04
2023-02-16T20:30:20.834Z,55.88
2023-02-16T20:33:19.042Z,55.79
2023-02-16T20:35:50.006Z,55.75
2023-02-16T20:38:49.396Z,55.60
2023-02-16T20:42:39.685Z,56.76
2023-02-16T20:45:42.526Z,57.08
2023-02-16T20:48:41.785Z,58.00
2023-02-16T20:51:51.793Z,58.76
2023-02-16T20:54:28.250Z,59.46
2023-02-16T20:57:39.944Z,59.79
2023-02-16T21:01:20.569Z,60.30
2023-02-16T21:04:35.552Z,60.66
2023-02-16T21:07:55.476Z,61.19
2023-02-16T21:11:19.160Z,58.67
2023-02-16T21:13:48.863Z,56.87
2023-02-16T21:16:59.084Z,56.69
2023-02-16T21:19:49.279Z,56.84
2023-02-16T21:23:05.461Z,57.58
2023-02-16T21:26:46.056Z,57.92
2023-02-16T21:29:48.149Z,58.32
2023-02-16T21:33:56.286Z,58.53
2023-02-16T21:37:11.908Z,58.72
2023-02-16T21:40:42.306Z,58.75
2023-02-16T21:44:39.805Z,58.80
2023-02-16T21:48:44.427Z,59.38
2023-02-16T21:52:28.783Z,60.03
2023-02-16T21:55:35.413Z,60.38
2023-02-16T21:59:43.541Z,60.55
2023-02-16T22:03:53.386Z,57.85
2023-02-16T22:07:48.393Z,57.25
2023-02-16T22:11:46.481Z,57.27
2023-02-16T22:15:17.473Z,58.70
2023-02-16T22:19:25.644Z,58.76
2023-02-16T22:22:56.351Z,59.00
2023-02-16T22:26:45.954Z,60.28
2023-02-16T22:30:01.129Z,59.75
2023-02-16T22:33:41.937Z,59.70
2023-02-16T22:37:09.779Z,61.03
2023-02-16T22:40:42.887Z,58.92
2023-02-16T22:43:59.743Z,57.53
2023-02-16T22:47:50.501Z,57.57
2023-02-16T22:51:47.498Z,57.32
2023-02-16T22:55:55.714Z,58.46
2023-02-16T22:59:43.680Z,57.73
2023-02-16T23:03:51.651Z,59.77
2023-02-16T23:07:55.900Z,60.13
2023-02-16T23:11:43.449Z,59.50
2023-02-16T23:15:36.519Z,60.90
2023-02-16T23:19:17.875Z,61.17
2023-02-16T23:23:18.861Z,59.32
2023-02-16T23:27:18.355Z,57.15
2023-02-16T23:31:26.566Z,57.67
2023-02-16T23:35:28.114Z,58.46
2023-02-16T23:39:36.222Z,58.65
2023-02-16T23:43:45.455Z,59.36
2023-02-16T23:47:54.477Z,60.81
2023-02-16T23:52:03.543Z,60.22
2023-02-16T23:56:11.818Z,61.19
